Aviation Digital Data Service (ADDS)

Output produced by METARs form (1113 UTC 21 April 2018)
found at http://aviationweather.gov/adds/metars/
 
KORD 210857Z 2109/2212 10003KT P6SM BKN120 
     FM211500 12005KT P6SM FEW050 OVC080 
     FM211800 06007KT P6SM OVC080 
     FM220100 07004KT P6SM BKN120